createdAt,value
2023-04-20T00:01:22.020Z,18.10
2023-04-20T00:03:50.010Z,18.50
2023-04-20T00:06:18.700Z,18.40
2023-04-20T00:08:46.562Z,18.00
2023-04-20T00:11:14.439Z,16.20
2023-04-20T00:13:43.016Z,14.30
2023-04-20T00:16:11.082Z,14.60
2023-04-20T00:18:39.033Z,14.30
2023-04-20T00:21:07.649Z,14.80
2023-04-20T00:23:36.023Z,13.80
2023-04-20T00:26:04.178Z,14.80
2023-04-20T00:28:32.177Z,15.50
2023-04-20T00:31:00.149Z,16.30
2023-04-20T00:33:28.624Z,17.50
2023-04-20T00:35:56.699Z,14.90
2023-04-20T00:38:25.037Z,13.20
2023-04-20T00:40:54.213Z,15.00
2023-04-20T00:43:22.566Z,14.90
2023-04-20T00:45:52.829Z,16.20
2023-04-20T00:48:21.142Z,14.50
2023-04-20T00:50:50.552Z,15.40
2023-04-20T00:53:19.388Z,18.70
2023-04-20T00:55:47.518Z,18.80
2023-04-20T00:58:15.558Z,17.10
2023-04-20T01:00:44.374Z,17.60
2023-04-20T01:03:12.554Z,17.00
2023-04-20T01:05:41.309Z,16.70
2023-04-20T01:08:09.290Z,16.20
2023-04-20T01:10:37.274Z,16.60
2023-04-20T01:13:07.872Z,17.60
2023-04-20T01:15:35.890Z,16.40
2023-04-20T01:18:03.784Z,15.70
2023-04-20T01:20:33.177Z,15.60
2023-04-20T01:23:01.845Z,13.90
2023-04-20T01:25:30.547Z,14.00
2023-04-20T01:27:58.474Z,14.30
2023-04-20T01:30:26.627Z,14.00
2023-04-20T01:32:54.559Z,12.30
2023-04-20T01:35:23.911Z,12.60
2023-04-20T01:37:52.009Z,15.00
2023-04-20T01:40:19.852Z,14.20
2023-04-20T01:42:47.884Z,14.00
2023-04-20T01:45:16.415Z,15.50
2023-04-20T01:47:44.419Z,14.00
2023-04-20T01:50:12.320Z,13.70
2023-04-20T01:52:40.271Z,14.70
2023-04-20T01:55:08.881Z,14.40
2023-04-20T01:57:36.823Z,13.80
2023-04-20T02:00:05.363Z,14.20
2023-04-20T02:02:42.261Z,14.50
2023-04-20T02:05:10.375Z,14.70
2023-04-20T02:07:38.266Z,13.50
2023-04-20T02:10:08.393Z,14.10
2023-04-20T02:12:36.656Z,13.50
2023-04-20T02:15:06.866Z,14.40
2023-04-20T02:17:36.813Z,14.00
2023-04-20T02:20:09.373Z,14.50
2023-04-20T02:22:37.581Z,13.90
2023-04-20T02:25:06.414Z,14.60
2023-04-20T02:27:34.417Z,14.40
2023-04-20T02:30:02.216Z,14.50
2023-04-20T02:32:30.105Z,14.30
2023-04-20T02:34:58.043Z,14.90
2023-04-20T02:37:28.325Z,13.90
2023-04-20T02:39:57.049Z,14.40
2023-04-20T02:42:26.970Z,14.50
2023-04-20T02:44:56.078Z,14.50
2023-04-20T02:47:23.991Z,14.40
2023-04-20T02:49:52.397Z,14.80
2023-04-20T02:52:20.772Z,14.50
2023-04-20T02:54:48.646Z,13.90
2023-04-20T02:57:16.478Z,14.00
2023-04-20T02:59:44.581Z,12.90
2023-04-20T03:02:24.699Z,12.60
2023-04-20T03:04:54.034Z,13.50
2023-04-20T03:07:22.536Z,13.70
2023-04-20T03:09:50.447Z,13.40
2023-04-20T03:12:41.808Z,12.40
2023-04-20T03:15:30.171Z,12.20
2023-04-20T03:18:03.950Z,12.70
2023-04-20T03:20:32.538Z,12.20
2023-04-20T03:23:00.506Z,12.20
2023-04-20T03:25:29.673Z,12.00
2023-04-20T03:28:01.656Z,11.60
2023-04-20T03:30:30.125Z,12.80
2023-04-20T03:33:02.916Z,12.60
2023-04-20T03:35:31.034Z,12.80
2023-04-20T03:37:59.016Z,11.90
2023-04-20T03:40:27.094Z,12.90
2023-04-20T03:42:54.873Z,12.20
2023-04-20T03:45:22.778Z,12.10
2023-04-20T03:47:50.955Z,11.50
2023-04-20T03:50:18.934Z,12.20
2023-04-20T03:52:46.881Z,12.20
2023-04-20T03:55:14.762Z,11.70
2023-04-20T03:57:46.832Z,12.90
2023-04-20T04:04:59.561Z,13.50
2023-04-20T04:07:28.056Z,14.10
2023-04-20T04:09:56.836Z,13.20
2023-04-20T04:12:24.850Z,14.80
2023-04-20T04:14:52.750Z,16.60
2023-04-20T04:17:22.700Z,19.70
2023-04-20T04:19:50.539Z,20.40
2023-04-20T04:22:18.353Z,18.80
2023-04-20T04:25:00.676Z,17.00
2023-04-20T04:27:34.799Z,14.10
2023-04-20T04:34:37.778Z,13.50
2023-04-20T04:37:06.105Z,13.80
2023-04-20T04:39:41.400Z,14.00
2023-04-20T04:42:18.581Z,13.10
2023-04-20T04:44:46.834Z,13.40
2023-04-20T04:47:19.933Z,13.90
2023-04-20T04:49:48.077Z,12.90
2023-04-20T04:52:16.198Z,12.90
2023-04-20T04:54:44.031Z,12.70
2023-04-20T04:57:11.846Z,12.90
2023-04-20T04:59:40.486Z,12.90
2023-04-20T05:02:08.474Z,12.10
2023-04-20T05:04:36.592Z,12.30
2023-04-20T05:07:04.615Z,12.20
2023-04-20T05:09:33.939Z,12.20
2023-04-20T05:12:03.271Z,12.00
2023-04-20T05:14:32.234Z,11.30
2023-04-20T05:17:04.059Z,9.80
2023-04-20T05:19:32.989Z,10.30
2023-04-20T05:22:07.556Z,9.80
2023-04-20T05:24:50.228Z,9.50
2023-04-20T05:27:18.194Z,10.60
2023-04-20T05:29:46.009Z,8.90
2023-04-20T05:32:13.908Z,8.90
2023-04-20T05:34:41.796Z,9.70
2023-04-20T05:37:09.640Z,8.50
2023-04-20T05:39:37.476Z,9.00
2023-04-20T05:42:05.498Z,9.60
2023-04-20T05:44:34.006Z,9.60
2023-04-20T05:47:06.521Z,9.20
2023-04-20T05:49:35.569Z,9.30
2023-04-20T05:52:03.661Z,8.90
2023-04-20T05:54:31.433Z,9.70
2023-04-20T05:56:59.274Z,9.70
2023-04-20T05:59:27.156Z,9.80
2023-04-20T06:01:56.266Z,8.50
2023-04-20T06:04:24.403Z,9.20
2023-04-20T06:06:52.724Z,8.60
2023-04-20T06:09:20.967Z,9.20
2023-04-20T06:11:48.713Z,8.40
2023-04-20T06:14:16.742Z,8.60
2023-04-20T06:16:45.011Z,8.90
2023-04-20T06:19:12.741Z,8.60
2023-04-20T06:21:41.352Z,8.10
2023-04-20T06:24:09.301Z,7.50
2023-04-20T06:26:37.049Z,7.60
2023-04-20T06:29:05.230Z,8.30
2023-04-20T06:31:33.089Z,8.60
2023-04-20T06:34:01.143Z,8.20
2023-04-20T06:36:28.981Z,7.10
2023-04-20T06:38:56.775Z,7.00
2023-04-20T06:41:24.802Z,7.10
2023-04-20T06:43:52.547Z,6.90
2023-04-20T06:46:20.555Z,7.30
2023-04-20T06:48:48.433Z,6.90
2023-04-20T06:51:16.331Z,6.60
2023-04-20T06:53:44.060Z,6.90
2023-04-20T06:56:12.210Z,6.80
2023-04-20T06:58:39.954Z,6.80
2023-04-20T07:01:07.700Z,5.20
2023-04-20T07:03:35.661Z,5.80
2023-04-20T07:06:04.275Z,6.00
2023-04-20T07:08:32.072Z,6.10
2023-04-20T07:10:59.916Z,6.70
2023-04-20T07:13:33.962Z,6.60
2023-04-20T07:16:02.796Z,6.00
2023-04-20T07:18:32.352Z,5.90
2023-04-20T07:21:01.821Z,5.70
2023-04-20T07:23:29.731Z,5.30
2023-04-20T07:25:57.631Z,4.80
2023-04-20T11:04:37.396Z,1.90
2023-04-20T11:07:10.580Z,2.20
2023-04-20T11:09:38.568Z,2.10
2023-04-20T13:28:15.982Z,2.30
2023-04-20T14:17:34.903Z,1.60
2023-04-20T14:32:30.886Z,2.00
2023-04-20T14:34:58.744Z,2.20
2023-04-20T14:37:27.503Z,1.60
2023-04-20T14:39:55.879Z,2.70
2023-04-20T14:42:23.884Z,2.50
2023-04-20T14:47:20.717Z,2.40
2023-04-20T14:49:48.508Z,2.00
2023-04-20T14:52:16.304Z,2.10
2023-04-20T14:57:12.053Z,2.80
2023-04-20T14:59:41.472Z,2.30
2023-04-20T15:07:05.338Z,2.40
2023-04-20T15:09:33.335Z,2.10
2023-04-20T15:12:01.930Z,2.30
2023-04-20T15:14:29.744Z,2.30
2023-04-20T15:16:57.538Z,2.60
2023-04-20T15:19:25.383Z,2.80
2023-04-20T15:21:53.182Z,2.70
2023-04-20T15:24:21.046Z,2.70
2023-04-20T15:26:48.837Z,3.00
2023-04-20T15:31:46.023Z,2.60
2023-04-20T15:34:15.640Z,1.90
2023-04-20T15:36:43.676Z,2.10
2023-04-20T15:39:12.665Z,2.20
2023-04-20T15:41:40.468Z,2.60
2023-04-20T15:44:08.268Z,2.80
2023-04-20T15:46:38.230Z,2.50
2023-04-20T15:49:06.137Z,2.40
2023-04-20T15:51:34.005Z,2.70
2023-04-20T15:54:01.895Z,2.20
2023-04-20T15:56:29.698Z,2.40
2023-04-20T15:58:57.481Z,2.80
2023-04-20T16:01:25.473Z,2.40
2023-04-20T16:03:53.484Z,2.80
2023-04-20T16:06:21.447Z,2.90
2023-04-20T16:08:53.129Z,3.10
2023-04-20T16:11:22.070Z,2.80
2023-04-20T16:13:50.052Z,3.20
2023-04-20T16:16:17.995Z,2.40
2023-04-20T16:18:45.801Z,3.30
2023-04-20T16:21:14.242Z,3.50
2023-04-20T16:23:42.067Z,3.40
2023-04-20T16:26:09.993Z,3.10
2023-04-20T16:28:38.149Z,2.90
2023-04-20T16:31:06.312Z,3.30
2023-04-20T16:33:46.117Z,3.00
2023-04-20T16:36:19.923Z,3.40
2023-04-20T16:38:47.736Z,3.50
2023-04-20T16:41:16.534Z,3.80
2023-04-20T16:43:44.587Z,3.20
2023-04-20T16:46:14.024Z,2.70
2023-04-20T16:48:42.473Z,3.60
2023-04-20T16:51:10.295Z,3.40
2023-04-20T16:53:38.122Z,3.70
2023-04-20T16:56:06.254Z,3.40
2023-04-20T16:58:34.008Z,3.20
2023-04-20T17:01:02.011Z,4.00
2023-04-20T17:03:30.818Z,4.00
2023-04-20T17:05:58.854Z,4.00
2023-04-20T17:08:26.697Z,4.10
2023-04-20T17:10:54.566Z,4.20
2023-04-20T17:13:22.346Z,4.80
2023-04-20T17:15:50.151Z,4.30
2023-04-20T17:18:19.716Z,4.10
2023-04-20T17:20:48.106Z,4.10
2023-04-20T17:23:19.366Z,4.20
2023-04-20T17:25:47.483Z,4.70
2023-04-20T17:28:15.373Z,4.20
2023-04-20T17:30:43.199Z,4.40
2023-04-20T17:33:13.877Z,4.70
2023-04-20T17:35:42.014Z,4.60
2023-04-20T17:38:09.832Z,4.40
2023-04-20T17:40:37.604Z,4.80
2023-04-20T17:43:05.376Z,4.40
2023-04-20T17:45:33.232Z,4.20
2023-04-20T17:48:01.065Z,4.40
2023-04-20T17:50:28.948Z,5.00
2023-04-20T17:52:56.798Z,5.90
2023-04-20T17:55:24.725Z,5.00
2023-04-20T17:57:52.472Z,5.70
2023-04-20T18:00:20.691Z,4.50
2023-04-20T18:02:48.462Z,5.20
2023-04-20T18:05:17.022Z,4.90
2023-04-20T18:07:45.008Z,5.50
2023-04-20T18:10:15.599Z,6.40
2023-04-20T18:12:44.901Z,8.40
2023-04-20T18:15:13.086Z,7.10
2023-04-20T18:17:42.574Z,7.50
2023-04-20T18:20:10.714Z,9.90
2023-04-20T18:22:38.741Z,9.60
2023-04-20T18:25:06.696Z,9.60
2023-04-20T18:27:34.684Z,8.10
2023-04-20T18:30:02.631Z,8.70
2023-04-20T18:32:31.652Z,8.10
2023-04-20T18:35:00.387Z,7.90
2023-04-20T18:37:28.195Z,6.90
2023-04-20T18:39:56.098Z,6.70
2023-04-20T18:42:23.971Z,6.00
2023-04-20T18:44:53.521Z,6.90
2023-04-20T18:47:22.283Z,6.40
2023-04-20T18:49:50.660Z,7.10
2023-04-20T18:52:19.790Z,7.00
2023-04-20T18:54:48.739Z,6.90
2023-04-20T18:57:16.597Z,6.70
2023-04-20T18:59:44.350Z,6.70
2023-04-20T19:04:36.500Z,6.90
2023-04-20T19:07:04.275Z,7.70
2023-04-20T19:09:32.400Z,7.90
2023-04-20T19:12:01.546Z,7.70
2023-04-20T19:14:29.452Z,7.80
2023-04-20T19:16:57.388Z,6.70
2023-04-20T19:19:25.181Z,6.40
2023-04-20T19:21:53.877Z,7.00
2023-04-20T19:24:21.698Z,8.10
2023-04-20T19:26:49.498Z,7.70
2023-04-20T19:29:17.342Z,7.80
2023-04-20T19:31:45.157Z,7.60
2023-04-20T19:34:13.574Z,7.30
2023-04-20T19:36:41.965Z,7.20
2023-04-20T19:39:10.486Z,7.50
2023-04-20T19:41:38.256Z,7.40
2023-04-20T19:44:06.490Z,7.10
2023-04-20T19:46:34.562Z,7.10
2023-04-20T19:49:02.623Z,6.80
2023-04-20T19:51:32.732Z,8.00
2023-04-20T19:54:01.684Z,6.90
2023-04-20T19:56:29.536Z,6.90
2023-04-20T19:58:57.403Z,6.70
2023-04-20T20:01:25.676Z,6.60
2023-04-20T20:03:53.826Z,7.00
2023-04-20T20:06:22.515Z,7.70
2023-04-20T20:08:50.772Z,7.20
2023-04-20T20:11:18.770Z,6.10
2023-04-20T20:13:46.570Z,7.80
2023-04-20T20:16:14.441Z,6.80
2023-04-20T20:18:43.325Z,7.10
2023-04-20T20:21:11.372Z,7.60
2023-04-20T20:23:39.094Z,8.30
2023-04-20T20:26:07.110Z,8.40
2023-04-20T20:28:35.127Z,7.20
2023-04-20T20:31:03.046Z,7.60
2023-04-20T20:33:31.675Z,7.30
2023-04-20T20:36:01.591Z,7.30
2023-04-20T20:38:30.944Z,8.10
2023-04-20T20:40:58.765Z,7.00
2023-04-20T20:43:28.460Z,8.40
2023-04-20T20:45:56.512Z,8.80
2023-04-20T20:48:24.454Z,8.20
2023-04-20T20:50:52.202Z,8.00
2023-04-20T20:53:20.687Z,8.40
2023-04-20T20:55:48.484Z,9.00
2023-04-20T20:58:16.256Z,8.80
2023-04-20T21:00:47.516Z,7.30
2023-04-20T21:03:15.881Z,8.00
2023-04-20T21:05:43.722Z,7.50
2023-04-20T21:08:11.841Z,7.10
2023-04-20T21:10:39.986Z,8.40
2023-04-20T21:13:07.731Z,8.10
2023-04-20T21:15:35.738Z,8.00
2023-04-20T21:18:03.640Z,7.20
2023-04-20T21:20:31.836Z,8.50
2023-04-20T21:22:59.582Z,8.10
2023-04-20T21:25:27.343Z,7.30
2023-04-20T21:27:55.226Z,7.80
2023-04-20T21:30:23.043Z,7.80
2023-04-20T21:32:50.880Z,8.70
2023-04-20T21:35:18.991Z,8.70
2023-04-20T21:37:46.922Z,8.40
2023-04-20T21:40:14.672Z,8.10
2023-04-20T21:42:42.487Z,8.00
2023-04-20T21:45:10.864Z,8.90
2023-04-20T21:47:38.646Z,9.20
2023-04-20T21:50:06.931Z,9.30
2023-04-20T21:52:34.795Z,8.80
2023-04-20T21:55:02.679Z,8.20
2023-04-20T21:57:30.714Z,7.30
2023-04-20T21:59:58.988Z,8.70
2023-04-20T22:02:26.950Z,8.50
2023-04-20T22:04:56.303Z,8.60
2023-04-20T22:07:24.251Z,8.10
2023-04-20T22:09:51.988Z,8.90
2023-04-20T22:12:32.287Z,8.20
2023-04-20T22:15:04.571Z,8.30
2023-04-20T22:17:32.838Z,7.90
2023-04-20T22:20:00.789Z,8.20
2023-04-20T22:22:28.575Z,7.30
2023-04-20T22:24:56.319Z,8.40
2023-04-20T22:27:24.212Z,8.50
2023-04-20T22:29:51.949Z,7.90
2023-04-20T22:32:19.773Z,7.70
2023-04-20T22:34:48.102Z,8.60
2023-04-20T22:37:15.990Z,8.10
2023-04-20T22:39:44.524Z,7.50
2023-04-20T22:42:12.313Z,7.20
2023-04-20T22:44:40.022Z,8.00
2023-04-20T22:47:07.789Z,7.50
2023-04-20T22:49:35.923Z,8.30
2023-04-20T22:52:04.361Z,7.60
2023-04-20T22:54:32.074Z,7.40
2023-04-20T22:56:59.930Z,7.90
2023-04-20T22:59:28.679Z,8.20
2023-04-20T23:01:56.858Z,7.70
2023-04-20T23:04:24.904Z,8.00
2023-04-20T23:06:52.994Z,7.20
2023-04-20T23:09:21.067Z,8.50
2023-04-20T23:11:49.093Z,8.50
2023-04-20T23:14:16.957Z,7.50
2023-04-20T23:16:44.901Z,7.50
2023-04-20T23:19:12.933Z,7.50
2023-04-20T23:21:41.104Z,7.70
2023-04-20T23:24:09.080Z,7.40
2023-04-20T23:26:36.803Z,7.10
2023-04-20T23:29:04.658Z,7.50
2023-04-20T23:31:33.105Z,7.80
2023-04-20T23:34:01.392Z,8.30
2023-04-20T23:36:29.198Z,7.70
2023-04-20T23:38:57.059Z,7.70
2023-04-20T23:41:28.268Z,7.70
2023-04-20T23:44:14.626Z,7.60
2023-04-20T23:46:42.392Z,7.50
2023-04-20T23:49:10.145Z,6.80
2023-04-20T23:51:37.885Z,7.10
2023-04-20T23:54:05.767Z,6.80
2023-04-20T23:56:33.544Z,7.00
2023-04-20T23:59:01.562Z,7.40
